Bookmark and Share
Track history (hours):
 

Courage

More information available from US FCC via Universal Licensing System and Coast Guard Vessel Documentation Center.

Last reported at 2014-Apr-15 22:11 UTC. Time now 2014-Apr-18 16:13 UTC.
Position N 44°28' W 063°29'.

Type: Ship. MMSI: 367063050.

NotesDate/timePositionNaut miles runAvg speedWind from/ knotsBaromVisibWave heightAir tempDewpointWater temp
2014-Apr-15 22:11N 44°28' W 063°29'710.5
2014-Apr-15 21:33N 44°34' W 063°32'3 3.3
2014-Apr-15 20:33N 44°37' W 063°31'0 0.0
2014-Apr-15 19:33N 44°37' W 063°31'0 0.0
2014-Apr-15 16:23N 44°37' W 063°31'0 0.0
2014-Apr-15 15:33N 44°37' W 063°31'1 1.1
2014-Apr-15 14:32N 44°38' W 063°32'8 4.1
2014-Apr-15 12:33N 44°30' W 063°29'7 6.9
2014-Apr-15 11:33N 44°24' W 063°24'31311.6
2014-Apr-14 08:32N 40°41' W 068°23'2613.1
2014-Apr-14 06:33N 40°26' W 068°50'1413.3
2014-Apr-14 05:31N 40°18' W 069°05'11416.2
2014-Apr-13 22:30N 39°13' W 071°07'1914.8
2014-Apr-13 21:15N 39°02' W 071°26'1014.1
2014-Apr-13 20:33N 38°57' W 071°36'1514.1
2014-Apr-13 19:31N 38°48' W 071°52'1414.4
2014-Apr-13 18:33N 38°40' W 072°06'1514.8
2014-Apr-13 17:34N 38°32' W 072°22'1514.5
2014-Apr-13 16:33N 38°23' W 072°37'15113.7
2014-Apr-13 05:32N 36°58' W 075°14'2612.0
2014-Apr-13 03:24N 36°49' W 075°44'810.1
2014-Apr-13 02:33N 36°53' W 075°53'1111.0
2014-Apr-13 01:33N 37°01' W 076°03'1414.5
2014-Apr-13 00:33N 37°15' W 076°08'3314.9
2014-Apr-12 22:22N 37°47' W 076°11'6717.0
2014-Apr-12 18:25N 38°54' W 076°24'1214.1
2014-Apr-12 17:34N 39°06' W 076°24'1110.5
2014-Apr-12 16:34N 39°14' W 076°33'1 0.9
2014-Apr-12 15:34N 39°15' W 076°32'0 0.0
2014-Apr-12 14:33N 39°15' W 076°32'0 0.0
2014-Apr-12 13:33N 39°15' W 076°32'0 0.0
2014-Apr-12 12:33N 39°15' W 076°32'0 0.0
2014-Apr-12 11:34N 39°15' W 076°32'0 0.0
2014-Apr-12 10:34N 39°15' W 076°32'0 0.0
2014-Apr-12 09:33N 39°15' W 076°32'0 0.0
2014-Apr-12 08:33N 39°15' W 076°32'0 0.0
2014-Apr-12 07:33N 39°15' W 076°32'0 0.0
2014-Apr-12 06:33N 39°15' W 076°32'0 0.0
2014-Apr-12 05:34N 39°15' W 076°32'0 0.0
2014-Apr-12 04:33N 39°15' W 076°32'0 0.0
2014-Apr-12 03:34N 39°15' W 076°32'0 0.0
2014-Apr-12 02:33N 39°15' W 076°32'0 0.0
2014-Apr-12 01:34N 39°15' W 076°32'0 0.0
2014-Apr-12 00:33N 39°15' W 076°32'0 0.0
2014-Apr-11 23:33N 39°15' W 076°32'0 0.0
2014-Apr-11 22:33N 39°15' W 076°32'0 0.0
2014-Apr-11 21:34N 39°15' W 076°32'0 0.0
2014-Apr-11 20:33N 39°15' W 076°32'0 0.0
2014-Apr-11 19:33N 39°15' W 076°32'0 0.0
2014-Apr-11 18:33N 39°15' W 076°32'0 0.0
2014-Apr-11 17:33N 39°15' W 076°32'0 0.0
2014-Apr-11 16:33N 39°15' W 076°32'0 0.0
2014-Apr-11 15:34N 39°15' W 076°32'0 0.0
2014-Apr-11 14:33N 39°15' W 076°32'0 0.0
2014-Apr-11 13:33N 39°15' W 076°32'0 0.0
2014-Apr-11 12:33N 39°15' W 076°32'0 0.0
2014-Apr-11 11:33N 39°15' W 076°32'0 0.0
2014-Apr-11 10:33N 39°15' W 076°32'0 0.0
2014-Apr-11 09:34N 39°15' W 076°32'2 2.3
2014-Apr-11 08:33N 39°13' W 076°31'8 8.3
2014-Apr-11 07:33N 39°06' W 076°24'1414.6
2014-Apr-11 06:34N 38°52' W 076°24'8717.3
2014-Apr-11 01:33N 37°27' W 076°05'1817.7
2014-Apr-11 00:33N 37°09' W 076°09'1615.7
2014-Apr-10 23:33N 36°56' W 075°57'8 7.8
2014-Apr-10 22:33N 36°52' W 075°50'8 8.2
2014-Apr-10 21:33N 36°47' W 075°41'10 9.9
2014-Apr-10 20:33N 36°39' W 075°35'12415.1
2014-Apr-10 12:22N 34°36' W 075°50'1817.4
2014-Apr-10 11:19N 34°23' W 076°06'1617.5
2014-Apr-10 10:23N 34°12' W 076°20'1518.0
2014-Apr-10 09:33N 34°02' W 076°33'1818.0
2014-Apr-10 08:33N 33°49' W 076°49'  
2014-Apr-06 22:26N 28°34' W 079°43'9418.5
2014-Apr-06 17:22N 27°01' W 079°48'1517.5
2014-Apr-06 16:31N 26°46' W 079°47'1617.0
2014-Apr-06 15:33N 26°30' W 079°45'1817.5
2014-Apr-06 14:33N 26°12' W 079°46'1818.0
2014-Apr-06 13:33N 25°54' W 079°50'1818.2
2014-Apr-06 12:33N 25°37' W 079°55'  

Dump ship's entire track history

sailing weather and tide predictions

Courage — WDC6907 — position and weather